sensor_id;sensor_type;location;lat;lon;timestamp;pressure;altitude;pressure_sealevel;temperature;humidity
56198;BME280;42700;42.524;12.052;2022-09-09T00:00:21;97807.94;;;18.67;100.00
56198;BME280;42700;42.524;12.052;2022-09-09T00:02:53;97741.03;;;18.58;100.00
56198;BME280;42700;42.524;12.052;2022-09-09T00:05:23;97902.84;;;18.74;100.00
56198;BME280;42700;42.524;12.052;2022-09-09T00:07:52;98117.09;;;18.93;100.00
56198;BME280;42700;42.524;12.052;2022-09-09T00:10:32;97920.16;;;18.78;100.00
56198;BME280;42700;42.524;12.052;2022-09-09T00:15:33;98186.41;;;18.91;100.00
56198;BME280;42700;42.524;12.052;2022-09-09T00:18:22;98313.44;;;19.07;100.00
56198;BME280;42700;42.524;12.052;2022-09-09T00:20:54;98332.44;;;19.12;100.00
56198;BME280;42700;42.524;12.052;2022-09-09T00:23:37;98322.72;;;19.11;100.00
56198;BME280;42700;42.524;12.052;2022-09-09T00:31:28;98407.81;;;19.12;100.00
56198;BME280;42700;42.524;12.052;2022-09-09T00:33:54;98321.34;;;19.02;100.00
56198;BME280;42700;42.524;12.052;2022-09-09T00:36:21;98414.44;;;19.09;100.00
56198;BME280;42700;42.524;12.052;2022-09-09T00:38:57;98423.56;;;19.08;100.00
56198;BME280;42700;42.524;12.052;2022-09-09T00:52:23;98603.03;;;19.21;100.00
56198;BME280;42700;42.524;12.052;2022-09-09T00:57:33;98643.44;;;19.21;100.00
56198;BME280;42700;42.524;12.052;2022-09-09T01:08:21;98687.75;;;19.32;100.00
56198;BME280;42700;42.524;12.052;2022-09-09T01:10:53;98677.78;;;19.32;100.00
56198;BME280;42700;42.524;12.052;2022-09-09T01:13:23;98626.66;;;19.26;100.00
56198;BME280;42700;42.524;12.052;2022-09-09T01:15:49;98644.69;;;19.25;100.00
56198;BME280;42700;42.524;12.052;2022-09-09T01:18:17;98664.56;;;19.24;100.00
56198;BME280;42700;42.524;12.052;2022-09-09T01:20:48;98728.34;;;19.30;100.00
56198;BME280;42700;42.524;12.052;2022-09-09T01:26:04;98822.19;;;19.40;100.00
56198;BME280;42700;42.524;12.052;2022-09-09T01:28:34;98841.44;;;19.44;100.00
56198;BME280;42700;42.524;12.052;2022-09-09T01:31:03;98832.97;;;19.47;100.00
56198;BME280;42700;42.524;12.052;2022-09-09T01:33:29;98868.81;;;19.54;100.00
56198;BME280;42700;42.524;12.052;2022-09-09T01:35:56;98866.72;;;19.56;100.00
56198;BME280;42700;42.524;12.052;2022-09-09T01:38:23;98905.50;;;19.62;100.00
56198;BME280;42700;42.524;12.052;2022-09-09T01:40:49;98903.63;;;19.62;100.00
56198;BME280;42700;42.524;12.052;2022-09-09T01:43:17;98933.47;;;19.67;100.00
56198;BME280;42700;42.524;12.052;2022-09-09T01:45:43;98960.63;;;19.72;100.00
56198;BME280;42700;42.524;12.052;2022-09-09T01:48:09;98973.72;;;19.76;100.00
56198;BME280;42700;42.524;12.052;2022-09-09T01:50:34;99044.66;;;19.83;100.00
56198;BME280;42700;42.524;12.052;2022-09-09T01:53:00;99052.13;;;19.87;100.00
56198;BME280;42700;42.524;12.052;2022-09-09T01:55:31;99091.94;;;19.92;100.00
56198;BME280;42700;42.524;12.052;2022-09-09T02:00:44;99144.66;;;20.01;100.00
56198;BME280;42700;42.524;12.052;2022-09-09T02:03:47;99198.59;;;20.08;100.00
56198;BME280;42700;42.524;12.052;2022-09-09T02:08:36;99268.34;;;20.18;100.00
56198;BME280;42700;42.524;12.052;2022-09-09T02:13:34;99355.72;;;20.30;100.00
56198;BME280;42700;42.524;12.052;2022-09-09T02:16:02;99347.25;;;20.33;100.00
56198;BME280;42700;42.524;12.052;2022-09-09T02:18:38;99324.00;;;20.32;100.00
56198;BME280;42700;42.524;12.052;2022-09-09T02:21:05;99301.16;;;20.28;100.00
56198;BME280;42700;42.524;12.052;2022-09-09T02:23:31;99120.22;;;20.09;100.00
56198;BME280;42700;42.524;12.052;2022-09-09T02:25:58;99215.63;;;20.15;100.00
56198;BME280;42700;42.524;12.052;2022-09-09T02:28:25;99067.91;;;19.97;100.00
56198;BME280;42700;42.524;12.052;2022-09-09T02:30:52;98949.28;;;19.84;100.00
56198;BME280;42700;42.524;12.052;2022-09-09T02:33:22;98972.31;;;19.80;100.00
56198;BME280;42700;42.524;12.052;2022-09-09T02:35:49;99123.66;;;19.90;100.00
56198;BME280;42700;42.524;12.052;2022-09-09T02:38:15;99145.84;;;19.92;100.00
56198;BME280;42700;42.524;12.052;2022-09-09T02:40:42;99170.13;;;19.92;100.00
56198;BME280;42700;42.524;12.052;2022-09-09T02:43:07;99158.72;;;19.90;100.00
56198;BME280;42700;42.524;12.052;2022-09-09T02:45:41;99103.97;;;19.83;100.00
56198;BME280;42700;42.524;12.052;2022-09-09T02:50:55;99054.56;;;19.76;100.00
56198;BME280;42700;42.524;12.052;2022-09-09T02:56:13;99064.72;;;19.73;100.00
56198;BME280;42700;42.524;12.052;2022-09-09T03:16:56;99146.56;;;19.72;100.00
56198;BME280;42700;42.524;12.052;2022-09-09T03:19:25;99160.25;;;19.71;100.00
56198;BME280;42700;42.524;12.052;2022-09-09T03:21:51;99240.53;;;19.76;100.00
56198;BME280;42700;42.524;12.052;2022-09-09T03:24:17;99321.63;;;19.81;100.00
56198;BME280;42700;42.524;12.052;2022-09-09T03:26:42;99157.31;;;19.66;100.00
56198;BME280;42700;42.524;12.052;2022-09-09T03:29:11;99157.31;;;19.66;100.00
56198;BME280;42700;42.524;12.052;2022-09-09T03:31:37;99140.72;;;19.62;100.00
56198;BME280;42700;42.524;12.052;2022-09-09T03:34:03;99135.34;;;19.62;100.00
56198;BME280;42700;42.524;12.052;2022-09-09T03:36:28;99132.03;;;19.60;100.00
56198;BME280;42700;42.524;12.052;2022-09-09T03:38:54;99157.94;;;19.61;100.00
56198;BME280;42700;42.524;12.052;2022-09-09T03:41:20;99181.13;;;19.62;100.00
56198;BME280;42700;42.524;12.052;2022-09-09T03:43:47;99181.34;;;19.61;100.00
56198;BME280;42700;42.524;12.052;2022-09-09T03:46:12;99159.34;;;19.57;100.00
56198;BME280;42700;42.524;12.052;2022-09-09T03:48:38;99220.94;;;19.60;100.00
56198;BME280;42700;42.524;12.052;2022-09-09T03:51:03;99197.69;;;19.59;100.00
56198;BME280;42700;42.524;12.052;2022-09-09T03:53:29;99260.09;;;19.63;100.00
56198;BME280;42700;42.524;12.052;2022-09-09T03:55:55;99277.13;;;19.63;100.00
56198;BME280;42700;42.524;12.052;2022-09-09T03:58:21;99325.22;;;19.66;100.00
56198;BME280;42700;42.524;12.052;2022-09-09T04:00:52;99300.31;;;19.64;100.00
56198;BME280;42700;42.524;12.052;2022-09-09T04:03:18;99297.00;;;19.62;100.00
56198;BME280;42700;42.524;12.052;2022-09-09T04:05:43;99321.88;;;19.64;100.00
56198;BME280;42700;42.524;12.052;2022-09-09T04:08:09;99327.28;;;19.64;100.00
56198;BME280;42700;42.524;12.052;2022-09-09T04:10:34;99367.31;;;19.67;100.00
56198;BME280;42700;42.524;12.052;2022-09-09T04:13:04;99317.91;;;19.60;100.00
56198;BME280;42700;42.524;12.052;2022-09-09T04:15:30;99311.72;;;19.60;100.00
56198;BME280;42700;42.524;12.052;2022-09-09T04:17:55;99313.56;;;19.59;100.00
56198;BME280;42700;42.524;12.052;2022-09-09T04:20:21;99367.88;;;19.63;100.00
56198;BME280;42700;42.524;12.052;2022-09-09T04:22:47;99408.97;;;19.65;100.00
56198;BME280;42700;42.524;12.052;2022-09-09T04:25:13;99363.72;;;19.60;100.00
56198;BME280;42700;42.524;12.052;2022-09-09T04:27:39;99404.78;;;19.62;100.00
56198;BME280;42700;42.524;12.052;2022-09-09T04:30:04;99446.50;;;19.66;100.00
56198;BME280;42700;42.524;12.052;2022-09-09T04:32:32;99489.88;;;19.71;100.00
56198;BME280;42700;42.524;12.052;2022-09-09T04:34:57;99489.88;;;19.71;100.00
56198;BME280;42700;42.524;12.052;2022-09-09T04:37:23;99550.28;;;19.77;100.00
56198;BME280;42700;42.524;12.052;2022-09-09T04:39:50;99699.91;;;19.88;100.00
56198;BME280;42700;42.524;12.052;2022-09-09T04:42:15;99737.28;;;19.91;100.00
56198;BME280;42700;42.524;12.052;2022-09-09T04:44:43;99780.50;;;19.98;100.00
56198;BME280;42700;42.524;12.052;2022-09-09T04:47:09;99814.13;;;20.02;100.00
56198;BME280;42700;42.524;12.052;2022-09-09T04:49:34;99868.16;;;20.08;100.00
56198;BME280;42700;42.524;12.052;2022-09-09T04:52:01;99850.13;;;20.09;100.00
56198;BME280;42700;42.524;12.052;2022-09-09T04:54:27;99892.72;;;20.14;100.00
56198;BME280;42700;42.524;12.052;2022-09-09T04:56:53;99831.03;;;20.25;100.00
56198;BME280;42700;42.524;12.052;2022-09-09T04:59:20;99757.66;;;20.30;100.00
56198;BME280;42700;42.524;12.052;2022-09-09T05:01:47;99768.06;;;20.33;100.00
56198;BME280;42700;42.524;12.052;2022-09-09T05:04:12;99789.28;;;20.36;100.00
56198;BME280;42700;42.524;12.052;2022-09-09T05:06:39;99787.22;;;20.38;100.00
56198;BME280;42700;42.524;12.052;2022-09-09T05:09:05;99789.72;;;20.40;100.00
56198;BME280;42700;42.524;12.052;2022-09-09T05:11:31;99772.06;;;20.37;100.00
56198;BME280;42700;42.524;12.052;2022-09-09T05:14:00;99831.69;;;20.42;100.00
56198;BME280;42700;42.524;12.052;2022-09-09T05:16:26;99884.25;;;20.46;100.00
56198;BME280;42700;42.524;12.052;2022-09-09T05:18:51;99926.50;;;20.54;100.00
56198;BME280;42700;42.524;12.052;2022-09-09T05:21:18;99914.47;;;20.57;100.00
56198;BME280;42700;42.524;12.052;2022-09-09T05:23:44;99942.44;;;20.64;100.00
56198;BME280;42700;42.524;12.052;2022-09-09T05:26:14;99913.75;;;20.63;100.00
56198;BME280;42700;42.524;12.052;2022-09-09T05:28:40;99927.91;;;20.65;100.00
56198;BME280;42700;42.524;12.052;2022-09-09T05:31:06;99954.53;;;20.68;100.00
56198;BME280;42700;42.524;12.052;2022-09-09T05:33:36;99953.50;;;20.69;100.00
56198;BME280;42700;42.524;12.052;2022-09-09T05:36:06;99988.22;;;20.72;100.00
56198;BME280;42700;42.524;12.052;2022-09-09T05:38:33;100026.50;;;20.76;100.00
56198;BME280;42700;42.524;12.052;2022-09-09T05:40:59;100043.97;;;20.80;100.00
56198;BME280;42700;42.524;12.052;2022-09-09T05:43:25;100069.41;;;20.86;100.00
56198;BME280;42700;42.524;12.052;2022-09-09T05:46:25;100067.34;;;20.88;100.00
56198;BME280;42700;42.524;12.052;2022-09-09T05:48:44;100168.28;;;21.01;100.00
56198;BME280;42700;42.524;12.052;2022-09-09T05:51:14;100219.00;;;21.14;100.00
56198;BME280;42700;42.524;12.052;2022-09-09T05:53:41;100246.22;;;21.28;100.00
56198;BME280;42700;42.524;12.052;2022-09-09T05:56:08;100200.94;;;21.30;100.00
56198;BME280;42700;42.524;12.052;2022-09-09T05:58:36;100189.28;;;21.29;100.00
56198;BME280;42700;42.524;12.052;2022-09-09T06:01:03;100281.91;;;21.38;100.00
56198;BME280;42700;42.524;12.052;2022-09-09T06:03:28;100359.88;;;21.49;100.00
56198;BME280;42700;42.524;12.052;2022-09-09T06:05:57;100349.34;;;21.54;100.00
56198;BME280;42700;42.524;12.052;2022-09-09T06:08:23;100373.59;;;21.63;100.00
56198;BME280;42700;42.524;12.052;2022-09-09T06:10:49;100358.25;;;21.63;100.00
56198;BME280;42700;42.524;12.052;2022-09-09T06:13:14;100431.19;;;21.71;100.00
56198;BME280;42700;42.524;12.052;2022-09-09T06:15:48;100466.25;;;21.80;100.00
56198;BME280;42700;42.524;12.052;2022-09-09T06:18:14;100466.72;;;21.83;100.00
56198;BME280;42700;42.524;12.052;2022-09-09T06:20:43;100492.56;;;21.86;100.00
56198;BME280;42700;42.524;12.052;2022-09-09T06:23:08;100522.25;;;21.94;100.00
56198;BME280;42700;42.524;12.052;2022-09-09T06:25:34;100541.47;;;21.99;100.00
56198;BME280;42700;42.524;12.052;2022-09-09T06:27:59;100543.63;;;22.04;100.00
56198;BME280;42700;42.524;12.052;2022-09-09T06:30:25;100623.72;;;22.13;100.00
56198;BME280;42700;42.524;12.052;2022-09-09T06:32:51;100661.84;;;22.26;100.00
56198;BME280;42700;42.524;12.052;2022-09-09T06:35:16;100668.25;;;22.34;100.00
56198;BME280;42700;42.524;12.052;2022-09-09T06:37:44;100723.31;;;22.41;100.00
56198;BME280;42700;42.524;12.052;2022-09-09T06:40:10;100778.59;;;22.55;100.00
56198;BME280;42700;42.524;12.052;2022-09-09T06:42:36;100914.84;;;22.78;100.00
56198;BME280;42700;42.524;12.052;2022-09-09T06:45:01;101002.78;;;23.07;100.00
56198;BME280;42700;42.524;12.052;2022-09-09T06:47:27;101023.78;;;23.36;100.00
56198;BME280;42700;42.524;12.052;2022-09-09T06:49:53;100951.91;;;23.40;100.00
56198;BME280;42700;42.524;12.052;2022-09-09T06:52:19;101130.09;;;23.55;100.00
56198;BME280;42700;42.524;12.052;2022-09-09T06:54:44;100985.75;;;23.45;100.00
56198;BME280;42700;42.524;12.052;2022-09-09T06:57:10;101263.31;;;23.68;100.00
56198;BME280;42700;42.524;12.052;2022-09-09T06:59:36;101418.91;;;24.00;100.00
56198;BME280;42700;42.524;12.052;2022-09-09T07:02:02;101472.81;;;24.20;100.00
56198;BME280;42700;42.524;12.052;2022-09-09T07:04:27;101579.66;;;24.52;100.00
56198;BME280;42700;42.524;12.052;2022-09-09T07:06:53;101411.78;;;24.39;100.00
56198;BME280;42700;42.524;12.052;2022-09-09T07:09:18;101678.13;;;24.70;100.00
56198;BME280;42700;42.524;12.052;2022-09-09T07:11:45;101495.09;;;24.63;100.00
56198;BME280;42700;42.524;12.052;2022-09-09T07:14:10;101639.38;;;24.76;100.00
56198;BME280;42700;42.524;12.052;2022-09-09T07:16:40;101949.59;;;25.06;100.00
56198;BME280;42700;42.524;12.052;2022-09-09T07:19:07;102163.03;;;25.45;100.00
56198;BME280;42700;42.524;12.052;2022-09-09T07:21:33;102094.50;;;25.49;100.00
56198;BME280;42700;42.524;12.052;2022-09-09T07:23:58;101811.25;;;25.28;100.00
56198;BME280;42700;42.524;12.052;2022-09-09T07:26:26;102162.56;;;25.57;100.00
56198;BME280;42700;42.524;12.052;2022-09-09T07:28:52;102223.13;;;25.68;100.00
56198;BME280;42700;42.524;12.052;2022-09-09T07:31:20;102239.66;;;25.74;100.00
56198;BME280;42700;42.524;12.052;2022-09-09T07:33:46;102272.50;;;25.81;100.00
56198;BME280;42700;42.524;12.052;2022-09-09T07:36:16;102156.25;;;25.65;100.00
56198;BME280;42700;42.524;12.052;2022-09-09T07:38:46;102272.81;;;25.78;100.00
56198;BME280;42700;42.524;12.052;2022-09-09T07:41:16;102301.44;;;25.82;100.00
56198;BME280;42700;42.524;12.052;2022-09-09T07:43:43;102216.00;;;25.75;100.00
56198;BME280;42700;42.524;12.052;2022-09-09T07:46:09;102024.44;;;25.51;100.00
56198;BME280;42700;42.524;12.052;2022-09-09T07:48:35;102003.34;;;25.37;100.00
56198;BME280;42700;42.524;12.052;2022-09-09T07:51:05;102014.19;;;25.20;100.00
56198;BME280;42700;42.524;12.052;2022-09-09T07:53:31;102218.97;;;25.39;100.00
56198;BME280;42700;42.524;12.052;2022-09-09T07:56:02;101881.28;;;25.01;100.00
56198;BME280;42700;42.524;12.052;2022-09-09T07:58:28;102243.84;;;25.18;100.00
56198;BME280;42700;42.524;12.052;2022-09-09T08:00:53;102418.91;;;25.35;100.00
56198;BME280;42700;42.524;12.052;2022-09-09T08:03:19;102567.38;;;25.55;100.00
56198;BME280;42700;42.524;12.052;2022-09-09T08:05:47;102572.16;;;25.62;100.00
56198;BME280;42700;42.524;12.052;2022-09-09T08:08:12;102943.94;;;26.02;100.00
56198;BME280;42700;42.524;12.052;2022-09-09T08:10:37;102845.28;;;26.08;100.00
56198;BME280;42700;42.524;12.052;2022-09-09T08:13:03;102807.13;;;26.08;100.00
56198;BME280;42700;42.524;12.052;2022-09-09T08:15:28;102803.34;;;26.19;100.00
56198;BME280;42700;42.524;12.052;2022-09-09T08:17:55;103241.19;;;26.65;100.00
56198;BME280;42700;42.524;12.052;2022-09-09T08:20:21;103318.59;;;26.92;100.00
56198;BME280;42700;42.524;12.052;2022-09-09T08:22:48;102969.28;;;26.76;100.00
56198;BME280;42700;42.524;12.052;2022-09-09T08:25:15;103389.47;;;27.12;100.00
56198;BME280;42700;42.524;12.052;2022-09-09T08:27:40;103539.72;;;27.39;100.00
56198;BME280;42700;42.524;12.052;2022-09-09T08:30:06;103446.44;;;27.44;100.00
56198;BME280;42700;42.524;12.052;2022-09-09T08:32:32;103464.38;;;27.47;100.00
56198;BME280;42700;42.524;12.052;2022-09-09T08:34:57;103593.13;;;27.52;100.00
56198;BME280;42700;42.524;12.052;2022-09-09T08:37:23;103708.09;;;27.68;100.00
56198;BME280;42700;42.524;12.052;2022-09-09T08:39:48;103135.78;;;27.20;100.00
56198;BME280;42700;42.524;12.052;2022-09-09T08:55:24;103516.31;;;27.74;100.00
56198;BME280;42700;42.524;12.052;2022-09-09T08:57:53;103385.81;;;27.68;100.00
56198;BME280;42700;42.524;12.052;2022-09-09T09:00:19;103743.78;;;27.96;100.00
56198;BME280;42700;42.524;12.052;2022-09-09T09:02:53;104072.66;;;28.26;100.00
56198;BME280;42700;42.524;12.052;2022-09-09T09:05:33;104250.91;;;28.50;100.00
56198;BME280;42700;42.524;12.052;2022-09-09T09:12:55;104188.09;;;28.70;100.00
56198;BME280;42700;42.524;12.052;2022-09-09T09:15:26;104140.72;;;28.79;100.00
56198;BME280;42700;42.524;12.052;2022-09-09T09:17:52;104026.81;;;28.78;100.00
56198;BME280;42700;42.524;12.052;2022-09-09T09:20:18;103856.78;;;28.53;100.00
56198;BME280;42700;42.524;12.052;2022-09-09T09:22:50;104032.16;;;28.60;100.00
56198;BME280;42700;42.524;12.052;2022-09-09T09:25:17;103582.59;;;28.24;100.00
56198;BME280;42700;42.524;12.052;2022-09-09T09:27:46;103745.28;;;28.28;100.00
56198;BME280;42700;42.524;12.052;2022-09-09T09:30:17;103977.97;;;28.44;100.00
56198;BME280;42700;42.524;12.052;2022-09-09T09:32:52;104440.94;;;28.88;100.00
56198;BME280;42700;42.524;12.052;2022-09-09T09:35:19;104380.13;;;28.85;100.00
56198;BME280;42700;42.524;12.052;2022-09-09T09:37:44;104786.56;;;29.34;100.00
56198;BME280;42700;42.524;12.052;2022-09-09T09:40:15;105061.38;;;29.80;100.00
56198;BME280;42700;42.524;12.052;2022-09-09T09:42:52;105075.25;;;30.11;100.00
56198;BME280;42700;42.524;12.052;2022-09-09T09:45:26;105140.78;;;30.36;100.00
56198;BME280;42700;42.524;12.052;2022-09-09T09:48:00;104867.91;;;30.41;100.00
56198;BME280;42700;42.524;12.052;2022-09-09T09:50:27;105292.47;;;30.94;100.00
56198;BME280;42700;42.524;12.052;2022-09-09T09:52:53;105157.31;;;30.90;100.00
56198;BME280;42700;42.524;12.052;2022-09-09T09:55:19;104769.66;;;30.65;100.00
56198;BME280;42700;42.524;12.052;2022-09-09T09:57:45;104724.41;;;30.60;100.00
56198;BME280;42700;42.524;12.052;2022-09-09T10:00:18;105167.28;;;30.91;100.00
56198;BME280;42700;42.524;12.052;2022-09-09T10:02:45;105351.72;;;31.19;100.00
56198;BME280;42700;42.524;12.052;2022-09-09T10:07:39;105548.03;;;31.60;100.00
56198;BME280;42700;42.524;12.052;2022-09-09T10:10:05;105699.31;;;31.92;100.00
56198;BME280;42700;42.524;12.052;2022-09-09T10:12:38;104891.41;;;31.45;100.00
56198;BME280;42700;42.524;12.052;2022-09-09T10:17:57;105564.16;;;32.08;100.00
56198;BME280;42700;42.524;12.052;2022-09-09T10:20:32;105802.47;;;32.32;100.00
56198;BME280;42700;42.524;12.052;2022-09-09T10:23:46;105818.25;;;32.41;100.00
56198;BME280;42700;42.524;12.052;2022-09-09T10:33:48;106024.25;;;32.81;100.00
56198;BME280;42700;42.524;12.052;2022-09-09T10:36:24;106029.53;;;32.84;100.00
56198;BME280;42700;42.524;12.052;2022-09-09T10:38:57;106003.22;;;32.91;100.00
56198;BME280;42700;42.524;12.052;2022-09-09T10:46:38;106766.56;;;33.80;100.00
56198;BME280;42700;42.524;12.052;2022-09-09T10:49:16;105964.25;;;33.51;100.00
56198;BME280;42700;42.524;12.052;2022-09-09T10:59:47;105228.97;;;33.22;100.00
56198;BME280;42700;42.524;12.052;2022-09-09T11:02:25;99971.69;;;28.38;100.00
56198;BME280;42700;42.524;12.052;2022-09-09T11:04:53;100445.72;;;28.66;100.00
56198;BME280;42700;42.524;12.052;2022-09-09T11:07:33;102641.00;;;30.38;100.00
56198;BME280;42700;42.524;12.052;2022-09-09T11:10:01;101653.97;;;30.11;100.00
56198;BME280;42700;42.524;12.052;2022-09-09T11:12:28;99819.63;;;29.81;100.00
56198;BME280;42700;42.524;12.052;2022-09-09T11:15:01;96782.94;;;28.30;100.00
56198;BME280;42700;42.524;12.052;2022-09-09T11:17:42;95282.38;;;27.43;100.00
56198;BME280;42700;42.524;12.052;2022-09-09T11:20:12;97120.06;;;27.72;100.00
56198;BME280;42700;42.524;12.052;2022-09-09T11:22:48;96624.38;;;28.00;99.45
56198;BME280;42700;42.524;12.052;2022-09-09T11:30:34;99554.16;;;30.51;100.00
56198;BME280;42700;42.524;12.052;2022-09-09T11:38:27;96554.53;;;29.56;80.56
56198;BME280;42700;42.524;12.052;2022-09-09T11:40:57;97831.69;;;30.27;84.59
56198;BME280;42700;42.524;12.052;2022-09-09T11:43:38;95599.91;;;29.42;83.83
56198;BME280;42700;42.524;12.052;2022-09-09T11:46:05;98754.19;;;31.09;86.19
56198;BME280;42700;42.524;12.052;2022-09-09T11:48:40;100501.88;;;32.22;100.00
56198;BME280;42700;42.524;12.052;2022-09-09T11:53:49;99616.44;;;32.19;100.00
56198;BME280;42700;42.524;12.052;2022-09-09T11:56:23;100314.19;;;32.70;100.00
56198;BME280;42700;42.524;12.052;2022-09-09T12:01:35;98711.28;;;31.58;76.78
56198;BME280;42700;42.524;12.052;2022-09-09T12:04:05;96631.00;;;30.60;72.79
56198;BME280;42700;42.524;12.052;2022-09-09T12:06:45;100302.66;;;32.24;68.09
56198;BME280;42700;42.524;12.052;2022-09-09T12:12:06;100066.88;;;32.64;90.72
56198;BME280;42700;42.524;12.052;2022-09-09T12:17:10;95830.00;;;31.33;67.54
56198;BME280;42700;42.524;12.052;2022-09-09T12:19:43;96222.25;;;31.28;71.26
56198;BME280;42700;42.524;12.052;2022-09-09T12:24:55;102095.56;;;34.19;100.00
56198;BME280;42700;42.524;12.052;2022-09-09T12:27:26;95486.19;;;31.84;76.91
56198;BME280;42700;42.524;12.052;2022-09-09T12:32:23;99848.13;;;33.71;100.00
56198;BME280;42700;42.524;12.052;2022-09-09T12:37:18;98478.63;;;33.34;74.21
56198;BME280;42700;42.524;12.052;2022-09-09T12:39:49;98786.28;;;33.64;73.63
56198;BME280;42700;42.524;12.052;2022-09-09T12:42:20;99043.50;;;33.63;81.96
56198;BME280;42700;42.524;12.052;2022-09-09T12:44:52;96977.06;;;33.06;71.45
56198;BME280;42700;42.524;12.052;2022-09-09T12:47:18;93063.69;;;31.47;77.43
56198;BME280;42700;42.524;12.052;2022-09-09T12:49:45;90516.69;;;30.33;78.89
56198;BME280;42700;42.524;12.052;2022-09-09T12:52:27;89967.25;;;30.33;75.91
56198;BME280;42700;42.524;12.052;2022-09-09T12:54:55;95398.56;;;32.22;92.68
56198;BME280;42700;42.524;12.052;2022-09-09T12:57:22;97159.09;;;33.20;82.59
56198;BME280;42700;42.524;12.052;2022-09-09T12:59:50;98349.22;;;33.84;99.21
56198;BME280;42700;42.524;12.052;2022-09-09T13:04:45;95692.22;;;32.91;88.77
56198;BME280;42700;42.524;12.052;2022-09-09T13:07:12;94248.84;;;32.45;83.60
56198;BME280;42700;42.524;12.052;2022-09-09T13:09:39;98955.88;;;34.04;100.00
56198;BME280;42700;42.524;12.052;2022-09-09T13:12:05;95696.88;;;33.14;73.55
56198;BME280;42700;42.524;12.052;2022-09-09T13:14:38;99188.41;;;34.27;95.99
56198;BME280;42700;42.524;12.052;2022-09-09T13:17:04;95419.16;;;33.10;100.00
56198;BME280;42700;42.524;12.052;2022-09-09T13:19:32;98925.78;;;34.26;90.59
56198;BME280;42700;42.524;12.052;2022-09-09T13:21:59;103152.88;;;35.76;100.00
56198;BME280;42700;42.524;12.052;2022-09-09T13:24:34;94285.63;;;32.66;82.32
56198;BME280;42700;42.524;12.052;2022-09-09T13:27:21;93823.31;;;32.52;83.79
56198;BME280;42700;42.524;12.052;2022-09-09T13:29:52;91106.03;;;31.40;83.97
56198;BME280;42700;42.524;12.052;2022-09-09T13:32:22;94170.03;;;32.42;85.01
56198;BME280;42700;42.524;12.052;2022-09-09T13:34:52;89939.03;;;31.14;83.97
56198;BME280;42700;42.524;12.052;2022-09-09T13:37:39;95839.22;;;33.01;93.91
56198;BME280;42700;42.524;12.052;2022-09-09T13:40:06;89410.75;;;30.89;85.83
56198;BME280;42700;42.524;12.052;2022-09-09T13:42:42;92632.06;;;31.72;95.04
56198;BME280;42700;42.524;12.052;2022-09-09T13:45:16;93866.78;;;32.23;84.47
56198;BME280;42700;42.524;12.052;2022-09-09T13:47:44;87338.97;;;29.81;89.93
56198;BME280;42700;42.524;12.052;2022-09-09T13:52:43;89672.63;;;30.49;88.27
56198;BME280;42700;42.524;12.052;2022-09-09T13:55:09;93427.91;;;31.65;92.21
56198;BME280;42700;42.524;12.052;2022-09-09T13:57:35;97909.38;;;33.41;91.55
56198;BME280;42700;42.524;12.052;2022-09-09T14:00:00;96396.34;;;33.28;78.84
56198;BME280;42700;42.524;12.052;2022-09-09T14:02:26;92713.13;;;31.86;86.24
56198;BME280;42700;42.524;12.052;2022-09-09T14:04:51;99000.31;;;34.16;91.92
56198;BME280;42700;42.524;12.052;2022-09-09T14:07:20;97586.19;;;34.07;77.31
56198;BME280;42700;42.524;12.052;2022-09-09T14:09:46;89612.13;;;31.15;82.91
56198;BME280;42700;42.524;12.052;2022-09-09T14:12:15;97423.09;;;33.80;88.67
56198;BME280;42700;42.524;12.052;2022-09-09T14:14:41;96542.41;;;33.87;77.37
56198;BME280;42700;42.524;12.052;2022-09-09T14:17:07;97348.72;;;34.22;92.21
56198;BME280;42700;42.524;12.052;2022-09-09T14:19:33;95880.03;;;33.72;91.51
56198;BME280;42700;42.524;12.052;2022-09-09T14:21:59;93005.28;;;32.85;80.03
56198;BME280;42700;42.524;12.052;2022-09-09T14:24:24;86798.38;;;30.40;85.52
56198;BME280;42700;42.524;12.052;2022-09-09T14:26:50;90205.50;;;31.16;93.46
56198;BME280;42700;42.524;12.052;2022-09-09T14:29:15;88526.31;;;30.52;90.08
56198;BME280;42700;42.524;12.052;2022-09-09T14:31:41;89871.25;;;30.75;91.04
56198;BME280;42700;42.524;12.052;2022-09-09T14:34:06;93177.00;;;31.80;94.39
56198;BME280;42700;42.524;12.052;2022-09-09T14:36:33;93981.22;;;32.26;82.40
56198;BME280;42700;42.524;12.052;2022-09-09T14:38:58;97680.13;;;33.67;86.58
56198;BME280;42700;42.524;12.052;2022-09-09T14:41:24;98996.88;;;34.24;86.54
56198;BME280;42700;42.524;12.052;2022-09-09T14:43:50;98837.16;;;34.33;84.02
56198;BME280;42700;42.524;12.052;2022-09-09T14:46:17;98133.00;;;33.95;90.40
56198;BME280;42700;42.524;12.052;2022-09-09T14:48:43;89065.38;;;30.88;90.02
56198;BME280;42700;42.524;12.052;2022-09-09T14:51:14;87268.72;;;29.67;100.00
56198;BME280;42700;42.524;12.052;2022-09-09T14:53:40;89026.34;;;29.78;100.00
56198;BME280;42700;42.524;12.052;2022-09-09T14:56:10;89759.56;;;29.68;100.00
56198;BME280;42700;42.524;12.052;2022-09-09T14:58:36;90091.88;;;29.41;100.00
56198;BME280;42700;42.524;12.052;2022-09-09T15:01:10;89472.44;;;28.75;100.00
56198;BME280;42700;42.524;12.052;2022-09-09T15:03:36;90834.91;;;28.60;100.00
56198;BME280;42700;42.524;12.052;2022-09-09T15:06:06;91277.06;;;28.27;100.00